sensor_id;sensor_type;location;lat;lon;timestamp;P1;durP1;ratioP1;P2;durP2;ratioP2
74512;SDS011;62992;52.052;8.550;2022-10-16T00:01:56;6.50;;;4.60;;
74512;SDS011;62992;52.052;8.550;2022-10-16T00:04:22;7.10;;;4.68;;
74512;SDS011;62992;52.052;8.550;2022-10-16T00:06:47;7.35;;;5.00;;
74512;SDS011;62992;52.052;8.550;2022-10-16T00:09:13;9.05;;;4.57;;
74512;SDS011;62992;52.052;8.550;2022-10-16T00:11:39;7.43;;;5.47;;
74512;SDS011;62992;52.052;8.550;2022-10-16T00:14:07;7.68;;;4.90;;
74512;SDS011;62992;52.052;8.550;2022-10-16T00:16:36;8.10;;;5.30;;
74512;SDS011;62992;52.052;8.550;2022-10-16T00:19:02;8.73;;;4.85;;
74512;SDS011;62992;52.052;8.550;2022-10-16T00:21:28;11.38;;;4.68;;
74512;SDS011;62992;52.052;8.550;2022-10-16T00:23:56;10.50;;;4.78;;
74512;SDS011;62992;52.052;8.550;2022-10-16T00:26:33;7.03;;;4.72;;
74512;SDS011;62992;52.052;8.550;2022-10-16T00:29:00;9.18;;;4.70;;
74512;SDS011;62992;52.052;8.550;2022-10-16T00:31:26;7.43;;;4.80;;
74512;SDS011;62992;52.052;8.550;2022-10-16T00:33:52;8.88;;;4.70;;
74512;SDS011;62992;52.052;8.550;2022-10-16T00:36:19;6.65;;;3.92;;
74512;SDS011;62992;52.052;8.550;2022-10-16T00:38:46;9.57;;;4.95;;
74512;SDS011;62992;52.052;8.550;2022-10-16T00:41:15;8.05;;;4.68;;
74512;SDS011;62992;52.052;8.550;2022-10-16T00:43:49;8.25;;;4.03;;
74512;SDS011;62992;52.052;8.550;2022-10-16T00:48:48;6.25;;;4.55;;
74512;SDS011;62992;52.052;8.550;2022-10-16T00:51:19;8.63;;;4.10;;
74512;SDS011;62992;52.052;8.550;2022-10-16T00:53:48;11.77;;;4.88;;
74512;SDS011;62992;52.052;8.550;2022-10-16T00:56:14;7.45;;;4.43;;
74512;SDS011;62992;52.052;8.550;2022-10-16T00:58:39;7.97;;;4.45;;
74512;SDS011;62992;52.052;8.550;2022-10-16T01:01:05;8.60;;;4.72;;
74512;SDS011;62992;52.052;8.550;2022-10-16T01:03:32;10.43;;;4.95;;
74512;SDS011;62992;52.052;8.550;2022-10-16T01:14:06;8.15;;;4.78;;
74512;SDS011;62992;52.052;8.550;2022-10-16T01:16:48;8.23;;;4.95;;
74512;SDS011;62992;52.052;8.550;2022-10-16T01:21:53;6.38;;;4.25;;
74512;SDS011;62992;52.052;8.550;2022-10-16T01:32:44;10.00;;;5.07;;
74512;SDS011;62992;52.052;8.550;2022-10-16T01:40:14;7.57;;;5.07;;
74512;SDS011;62992;52.052;8.550;2022-10-16T01:42:44;9.25;;;5.22;;
74512;SDS011;62992;52.052;8.550;2022-10-16T01:45:15;8.88;;;4.90;;
74512;SDS011;62992;52.052;8.550;2022-10-16T01:47:44;9.40;;;5.28;;
74512;SDS011;62992;52.052;8.550;2022-10-16T01:50:10;10.68;;;4.93;;
74512;SDS011;62992;52.052;8.550;2022-10-16T01:52:39;8.45;;;4.82;;
74512;SDS011;62992;52.052;8.550;2022-10-16T01:55:08;9.73;;;5.35;;
74512;SDS011;62992;52.052;8.550;2022-10-16T01:57:36;7.68;;;5.43;;
74512;SDS011;62992;52.052;8.550;2022-10-16T02:00:07;8.85;;;5.45;;
74512;SDS011;62992;52.052;8.550;2022-10-16T02:02:37;10.02;;;5.50;;
74512;SDS011;62992;52.052;8.550;2022-10-16T02:05:20;10.73;;;5.97;;
74512;SDS011;62992;52.052;8.550;2022-10-16T02:07:55;9.10;;;6.22;;
74512;SDS011;62992;52.052;8.550;2022-10-16T02:10:21;10.15;;;6.35;;
74512;SDS011;62992;52.052;8.550;2022-10-16T02:12:49;8.95;;;6.38;;
74512;SDS011;62992;52.052;8.550;2022-10-16T02:15:22;12.65;;;6.82;;
74512;SDS011;62992;52.052;8.550;2022-10-16T02:17:48;10.00;;;5.82;;
74512;SDS011;62992;52.052;8.550;2022-10-16T02:20:13;8.25;;;5.43;;
74512;SDS011;62992;52.052;8.550;2022-10-16T02:22:40;7.38;;;5.57;;
74512;SDS011;62992;52.052;8.550;2022-10-16T02:25:17;8.77;;;4.68;;
74512;SDS011;62992;52.052;8.550;2022-10-16T02:33:35;6.93;;;4.18;;
74512;SDS011;62992;52.052;8.550;2022-10-16T02:36:03;9.13;;;4.72;;
74512;SDS011;62992;52.052;8.550;2022-10-16T02:38:29;8.75;;;4.57;;
74512;SDS011;62992;52.052;8.550;2022-10-16T02:40:55;7.15;;;4.82;;
74512;SDS011;62992;52.052;8.550;2022-10-16T02:43:21;8.25;;;4.40;;
74512;SDS011;62992;52.052;8.550;2022-10-16T02:45:47;7.60;;;4.70;;
74512;SDS011;62992;52.052;8.550;2022-10-16T02:48:12;7.65;;;3.83;;
74512;SDS011;62992;52.052;8.550;2022-10-16T02:50:38;6.38;;;3.88;;
74512;SDS011;62992;52.052;8.550;2022-10-16T02:53:03;7.97;;;4.15;;
74512;SDS011;62992;52.052;8.550;2022-10-16T02:55:29;5.60;;;4.00;;
74512;SDS011;62992;52.052;8.550;2022-10-16T02:57:55;7.65;;;3.63;;
74512;SDS011;62992;52.052;8.550;2022-10-16T03:00:20;6.65;;;3.90;;
74512;SDS011;62992;52.052;8.550;2022-10-16T03:02:46;6.65;;;3.78;;
74512;SDS011;62992;52.052;8.550;2022-10-16T03:05:12;9.07;;;3.97;;
74512;SDS011;62992;52.052;8.550;2022-10-16T03:07:38;5.85;;;3.70;;
74512;SDS011;62992;52.052;8.550;2022-10-16T03:10:04;7.63;;;4.50;;
74512;SDS011;62992;52.052;8.550;2022-10-16T03:12:30;6.53;;;4.35;;
74512;SDS011;62992;52.052;8.550;2022-10-16T03:14:56;6.10;;;4.03;;
74512;SDS011;62992;52.052;8.550;2022-10-16T03:17:22;6.03;;;3.47;;
74512;SDS011;62992;52.052;8.550;2022-10-16T03:19:48;7.55;;;3.72;;
74512;SDS011;62992;52.052;8.550;2022-10-16T03:22:14;6.70;;;3.60;;
74512;SDS011;62992;52.052;8.550;2022-10-16T03:24:40;6.82;;;3.50;;
74512;SDS011;62992;52.052;8.550;2022-10-16T03:27:06;6.95;;;3.90;;
74512;SDS011;62992;52.052;8.550;2022-10-16T03:29:32;8.13;;;3.90;;
74512;SDS011;62992;52.052;8.550;2022-10-16T03:31:58;5.43;;;3.85;;
74512;SDS011;62992;52.052;8.550;2022-10-16T03:34:24;8.30;;;4.38;;
74512;SDS011;62992;52.052;8.550;2022-10-16T03:36:50;4.80;;;3.80;;
74512;SDS011;62992;52.052;8.550;2022-10-16T03:39:16;7.50;;;4.10;;
74512;SDS011;62992;52.052;8.550;2022-10-16T03:41:42;4.90;;;3.70;;
74512;SDS011;62992;52.052;8.550;2022-10-16T03:44:07;6.68;;;3.97;;
74512;SDS011;62992;52.052;8.550;2022-10-16T03:46:33;5.05;;;3.40;;
74512;SDS011;62992;52.052;8.550;2022-10-16T03:48:59;5.60;;;3.10;;
74512;SDS011;62992;52.052;8.550;2022-10-16T03:51:24;6.07;;;3.47;;
74512;SDS011;62992;52.052;8.550;2022-10-16T03:53:50;5.93;;;3.17;;
74512;SDS011;62992;52.052;8.550;2022-10-16T03:56:15;5.78;;;3.13;;
74512;SDS011;62992;52.052;8.550;2022-10-16T03:58:41;5.00;;;3.60;;
74512;SDS011;62992;52.052;8.550;2022-10-16T04:01:06;4.30;;;3.38;;
74512;SDS011;62992;52.052;8.550;2022-10-16T04:03:32;7.10;;;3.80;;
74512;SDS011;62992;52.052;8.550;2022-10-16T04:05:58;8.70;;;3.75;;
74512;SDS011;62992;52.052;8.550;2022-10-16T04:08:23;4.40;;;3.42;;
74512;SDS011;62992;52.052;8.550;2022-10-16T04:10:49;6.00;;;3.63;;
74512;SDS011;62992;52.052;8.550;2022-10-16T04:13:15;5.78;;;3.55;;
74512;SDS011;62992;52.052;8.550;2022-10-16T04:15:40;8.13;;;3.33;;
74512;SDS011;62992;52.052;8.550;2022-10-16T04:18:06;5.43;;;3.03;;
74512;SDS011;62992;52.052;8.550;2022-10-16T04:20:32;3.55;;;2.95;;
74512;SDS011;62992;52.052;8.550;2022-10-16T04:22:58;6.15;;;3.03;;
74512;SDS011;62992;52.052;8.550;2022-10-16T04:25:24;4.55;;;3.00;;
74512;SDS011;62992;52.052;8.550;2022-10-16T04:27:52;4.80;;;2.80;;
74512;SDS011;62992;52.052;8.550;2022-10-16T04:30:18;4.45;;;2.85;;
74512;SDS011;62992;52.052;8.550;2022-10-16T04:32:47;4.72;;;2.50;;
74512;SDS011;62992;52.052;8.550;2022-10-16T04:35:17;3.92;;;2.70;;
74512;SDS011;62992;52.052;8.550;2022-10-16T04:37:44;4.65;;;2.85;;
74512;SDS011;62992;52.052;8.550;2022-10-16T04:40:10;4.13;;;2.50;;
74512;SDS011;62992;52.052;8.550;2022-10-16T04:42:36;7.30;;;2.45;;
74512;SDS011;62992;52.052;8.550;2022-10-16T04:45:02;3.45;;;1.98;;
74512;SDS011;62992;52.052;8.550;2022-10-16T04:47:28;4.95;;;2.22;;
74512;SDS011;62992;52.052;8.550;2022-10-16T04:49:53;3.90;;;2.40;;
74512;SDS011;62992;52.052;8.550;2022-10-16T04:52:19;3.55;;;2.17;;
74512;SDS011;62992;52.052;8.550;2022-10-16T04:54:46;3.67;;;2.33;;
74512;SDS011;62992;52.052;8.550;2022-10-16T04:57:12;3.80;;;2.30;;
74512;SDS011;62992;52.052;8.550;2022-10-16T04:59:37;3.17;;;2.10;;
74512;SDS011;62992;52.052;8.550;2022-10-16T05:02:03;3.58;;;2.03;;
74512;SDS011;62992;52.052;8.550;2022-10-16T05:04:28;2.53;;;2.00;;
74512;SDS011;62992;52.052;8.550;2022-10-16T05:06:54;4.80;;;2.47;;
74512;SDS011;62992;52.052;8.550;2022-10-16T05:09:20;3.97;;;2.28;;
74512;SDS011;62992;52.052;8.550;2022-10-16T05:11:45;2.67;;;1.95;;
74512;SDS011;62992;52.052;8.550;2022-10-16T05:14:11;3.38;;;2.30;;
74512;SDS011;62992;52.052;8.550;2022-10-16T05:16:36;2.85;;;2.00;;
74512;SDS011;62992;52.052;8.550;2022-10-16T05:19:02;3.35;;;1.70;;
74512;SDS011;62992;52.052;8.550;2022-10-16T05:21:28;3.88;;;2.00;;
74512;SDS011;62992;52.052;8.550;2022-10-16T05:23:53;4.20;;;2.17;;
74512;SDS011;62992;52.052;8.550;2022-10-16T05:26:20;4.25;;;2.05;;
74512;SDS011;62992;52.052;8.550;2022-10-16T05:28:46;4.85;;;1.90;;
74512;SDS011;62992;52.052;8.550;2022-10-16T05:31:11;3.15;;;1.90;;
74512;SDS011;62992;52.052;8.550;2022-10-16T05:33:37;2.65;;;2.22;;
74512;SDS011;62992;52.052;8.550;2022-10-16T05:36:04;2.63;;;2.13;;
74512;SDS011;62992;52.052;8.550;2022-10-16T05:38:32;2.95;;;2.30;;
74512;SDS011;62992;52.052;8.550;2022-10-16T05:40:58;3.60;;;2.40;;
74512;SDS011;62992;52.052;8.550;2022-10-16T05:43:24;3.80;;;1.80;;
74512;SDS011;62992;52.052;8.550;2022-10-16T05:45:54;4.57;;;1.98;;
74512;SDS011;62992;52.052;8.550;2022-10-16T05:48:23;5.90;;;2.30;;
74512;SDS011;62992;52.052;8.550;2022-10-16T05:50:55;3.90;;;2.10;;
74512;SDS011;62992;52.052;8.550;2022-10-16T05:53:24;2.53;;;1.98;;
74512;SDS011;62992;52.052;8.550;2022-10-16T05:55:52;2.80;;;1.98;;
74512;SDS011;62992;52.052;8.550;2022-10-16T05:58:18;4.43;;;2.10;;
74512;SDS011;62992;52.052;8.550;2022-10-16T06:00:44;3.20;;;2.00;;
74512;SDS011;62992;52.052;8.550;2022-10-16T06:03:09;2.97;;;1.45;;
74512;SDS011;62992;52.052;8.550;2022-10-16T06:05:35;2.55;;;1.77;;
74512;SDS011;62992;52.052;8.550;2022-10-16T06:08:01;3.00;;;2.13;;
74512;SDS011;62992;52.052;8.550;2022-10-16T06:10:26;1.77;;;1.45;;
74512;SDS011;62992;52.052;8.550;2022-10-16T06:12:53;4.97;;;1.95;;
74512;SDS011;62992;52.052;8.550;2022-10-16T06:15:19;4.22;;;1.95;;
74512;SDS011;62992;52.052;8.550;2022-10-16T06:17:45;4.70;;;2.13;;
74512;SDS011;62992;52.052;8.550;2022-10-16T06:20:10;3.97;;;1.90;;
74512;SDS011;62992;52.052;8.550;2022-10-16T06:22:36;3.47;;;1.60;;
74512;SDS011;62992;52.052;8.550;2022-10-16T06:25:02;3.70;;;1.75;;
74512;SDS011;62992;52.052;8.550;2022-10-16T06:27:27;2.92;;;1.65;;
74512;SDS011;62992;52.052;8.550;2022-10-16T06:29:53;3.67;;;1.80;;
74512;SDS011;62992;52.052;8.550;2022-10-16T06:32:19;1.40;;;1.30;;
74512;SDS011;62992;52.052;8.550;2022-10-16T06:34:46;2.92;;;1.63;;
74512;SDS011;62992;52.052;8.550;2022-10-16T06:37:11;2.15;;;1.40;;
74512;SDS011;62992;52.052;8.550;2022-10-16T06:39:37;1.50;;;1.38;;
74512;SDS011;62992;52.052;8.550;2022-10-16T06:42:02;4.28;;;1.38;;
74512;SDS011;62992;52.052;8.550;2022-10-16T06:44:28;3.00;;;1.30;;
74512;SDS011;62992;52.052;8.550;2022-10-16T06:46:53;1.52;;;1.25;;
74512;SDS011;62992;52.052;8.550;2022-10-16T06:49:19;2.25;;;1.20;;
74512;SDS011;62992;52.052;8.550;2022-10-16T06:51:47;3.17;;;1.30;;
74512;SDS011;62992;52.052;8.550;2022-10-16T06:54:14;3.10;;;1.00;;
74512;SDS011;62992;52.052;8.550;2022-10-16T06:56:40;1.83;;;1.30;;
74512;SDS011;62992;52.052;8.550;2022-10-16T06:59:05;2.88;;;1.08;;
74512;SDS011;62992;52.052;8.550;2022-10-16T07:01:31;4.97;;;1.65;;
74512;SDS011;62992;52.052;8.550;2022-10-16T07:03:57;1.65;;;1.20;;
74512;SDS011;62992;52.052;8.550;2022-10-16T07:06:24;2.72;;;1.38;;
74512;SDS011;62992;52.052;8.550;2022-10-16T07:08:50;3.42;;;1.42;;
74512;SDS011;62992;52.052;8.550;2022-10-16T07:11:17;2.28;;;1.40;;
74512;SDS011;62992;52.052;8.550;2022-10-16T07:13:44;2.30;;;1.20;;
74512;SDS011;62992;52.052;8.550;2022-10-16T07:16:12;2.97;;;1.25;;
74512;SDS011;62992;52.052;8.550;2022-10-16T07:18:40;3.03;;;1.17;;
74512;SDS011;62992;52.052;8.550;2022-10-16T07:21:08;1.30;;;1.10;;
74512;SDS011;62992;52.052;8.550;2022-10-16T07:23:37;3.40;;;1.00;;
74512;SDS011;62992;52.052;8.550;2022-10-16T07:26:03;2.17;;;1.33;;
74512;SDS011;62992;52.052;8.550;2022-10-16T07:28:29;3.15;;;1.00;;
74512;SDS011;62992;52.052;8.550;2022-10-16T07:30:59;2.78;;;1.17;;
74512;SDS011;62992;52.052;8.550;2022-10-16T07:33:27;1.00;;;0.90;;
74512;SDS011;62992;52.052;8.550;2022-10-16T07:35:54;2.00;;;1.00;;
74512;SDS011;62992;52.052;8.550;2022-10-16T07:38:20;1.90;;;1.05;;
74512;SDS011;62992;52.052;8.550;2022-10-16T07:40:46;1.45;;;1.00;;
74512;SDS011;62992;52.052;8.550;2022-10-16T07:43:12;2.15;;;1.00;;
74512;SDS011;62992;52.052;8.550;2022-10-16T07:45:46;1.90;;;0.70;;
74512;SDS011;62992;52.052;8.550;2022-10-16T07:48:15;1.75;;;0.85;;
74512;SDS011;62992;52.052;8.550;2022-10-16T07:50:42;1.52;;;0.90;;
74512;SDS011;62992;52.052;8.550;2022-10-16T07:53:08;2.60;;;0.98;;
74512;SDS011;62992;52.052;8.550;2022-10-16T07:55:33;1.38;;;0.90;;
74512;SDS011;62992;52.052;8.550;2022-10-16T07:57:59;2.38;;;1.00;;
74512;SDS011;62992;52.052;8.550;2022-10-16T08:00:25;4.00;;;1.00;;
74512;SDS011;62992;52.052;8.550;2022-10-16T08:02:50;3.15;;;1.23;;
74512;SDS011;62992;52.052;8.550;2022-10-16T08:05:16;0.95;;;0.75;;
74512;SDS011;62992;52.052;8.550;2022-10-16T08:07:41;3.22;;;0.90;;
74512;SDS011;62992;52.052;8.550;2022-10-16T08:10:11;3.35;;;1.08;;
74512;SDS011;62992;52.052;8.550;2022-10-16T08:12:41;2.17;;;0.90;;
74512;SDS011;62992;52.052;8.550;2022-10-16T08:15:07;1.83;;;0.75;;
74512;SDS011;62992;52.052;8.550;2022-10-16T08:17:33;2.75;;;0.93;;
74512;SDS011;62992;52.052;8.550;2022-10-16T08:19:59;2.00;;;1.45;;
74512;SDS011;62992;52.052;8.550;2022-10-16T08:22:25;2.10;;;1.13;;
74512;SDS011;62992;52.052;8.550;2022-10-16T08:24:50;1.02;;;0.90;;
74512;SDS011;62992;52.052;8.550;2022-10-16T08:27:16;2.42;;;0.90;;
74512;SDS011;62992;52.052;8.550;2022-10-16T08:29:41;1.73;;;0.88;;
74512;SDS011;62992;52.052;8.550;2022-10-16T08:32:07;1.73;;;0.88;;
74512;SDS011;62992;52.052;8.550;2022-10-16T08:34:32;1.50;;;0.80;;
74512;SDS011;62992;52.052;8.550;2022-10-16T08:36:58;2.70;;;1.00;;
74512;SDS011;62992;52.052;8.550;2022-10-16T08:39:24;2.25;;;0.80;;
74512;SDS011;62992;52.052;8.550;2022-10-16T08:44:59;3.75;;;0.90;;
74512;SDS011;62992;52.052;8.550;2022-10-16T08:50:14;1.23;;;0.80;;
74512;SDS011;62992;52.052;8.550;2022-10-16T08:52:47;1.45;;;0.75;;
74512;SDS011;62992;52.052;8.550;2022-10-16T08:55:23;1.02;;;0.57;;
74512;SDS011;62992;52.052;8.550;2022-10-16T08:57:53;1.25;;;0.60;;
74512;SDS011;62992;52.052;8.550;2022-10-16T09:00:21;1.63;;;0.60;;
74512;SDS011;62992;52.052;8.550;2022-10-16T09:03:03;2.55;;;0.68;;
74512;SDS011;62992;52.052;8.550;2022-10-16T09:05:48;3.17;;;0.65;;
74512;SDS011;62992;52.052;8.550;2022-10-16T09:08:31;4.53;;;0.93;;
74512;SDS011;62992;52.052;8.550;2022-10-16T09:11:22;2.80;;;0.60;;
74512;SDS011;62992;52.052;8.550;2022-10-16T09:16:44;1.92;;;0.60;;
74512;SDS011;62992;52.052;8.550;2022-10-16T09:21:46;1.75;;;0.57;;
74512;SDS011;62992;52.052;8.550;2022-10-16T09:24:24;1.77;;;0.70;;
74512;SDS011;62992;52.052;8.550;2022-10-16T09:26:51;1.48;;;0.77;;
74512;SDS011;62992;52.052;8.550;2022-10-16T09:29:17;1.55;;;0.70;;
74512;SDS011;62992;52.052;8.550;2022-10-16T09:31:49;2.67;;;0.70;;
74512;SDS011;62992;52.052;8.550;2022-10-16T09:36:48;2.47;;;0.68;;
74512;SDS011;62992;52.052;8.550;2022-10-16T09:39:14;2.05;;;0.73;;
74512;SDS011;62992;52.052;8.550;2022-10-16T09:41:41;2.65;;;0.70;;
74512;SDS011;62992;52.052;8.550;2022-10-16T09:46:49;4.55;;;0.70;;
74512;SDS011;62992;52.052;8.550;2022-10-16T09:49:25;0.98;;;0.50;;
74512;SDS011;62992;52.052;8.550;2022-10-16T09:52:03;4.25;;;0.70;;
74512;SDS011;62992;52.052;8.550;2022-10-16T09:54:48;1.67;;;0.57;;
74512;SDS011;62992;52.052;8.550;2022-10-16T09:57:17;2.35;;;0.50;;
74512;SDS011;62992;52.052;8.550;2022-10-16T09:59:50;2.10;;;0.50;;
74512;SDS011;62992;52.052;8.550;2022-10-16T10:02:19;1.33;;;0.43;;
74512;SDS011;62992;52.052;8.550;2022-10-16T10:05:17;1.88;;;0.60;;
74512;SDS011;62992;52.052;8.550;2022-10-16T10:07:52;2.55;;;0.60;;
74512;SDS011;62992;52.052;8.550;2022-10-16T10:10:24;3.33;;;0.70;;
74512;SDS011;62992;52.052;8.550;2022-10-16T10:12:56;4.05;;;0.80;;
74512;SDS011;62992;52.052;8.550;2022-10-16T10:15:23;2.38;;;0.70;;
74512;SDS011;62992;52.052;8.550;2022-10-16T10:17:56;1.95;;;0.50;;
74512;SDS011;62992;52.052;8.550;2022-10-16T10:20:30;2.85;;;0.90;;
74512;SDS011;62992;52.052;8.550;2022-10-16T10:23:00;1.05;;;0.57;;
74512;SDS011;62992;52.052;8.550;2022-10-16T10:36:16;2.25;;;0.57;;
74512;SDS011;62992;52.052;8.550;2022-10-16T10:38:58;3.50;;;0.50;;
74512;SDS011;62992;52.052;8.550;2022-10-16T10:46:55;1.58;;;0.52;;
74512;SDS011;62992;52.052;8.550;2022-10-16T10:54:54;3.22;;;0.60;;
74512;SDS011;62992;52.052;8.550;2022-10-16T10:57:48;0.98;;;0.35;;
74512;SDS011;62992;52.052;8.550;2022-10-16T11:00:45;0.73;;;0.40;;
74512;SDS011;62992;52.052;8.550;2022-10-16T11:09:10;2.03;;;0.50;;
74512;SDS011;62992;52.052;8.550;2022-10-16T11:15:01;1.92;;;0.60;;
74512;SDS011;62992;52.052;8.550;2022-10-16T11:17:42;1.88;;;0.65;;
74512;SDS011;62992;52.052;8.550;2022-10-16T11:20:21;3.17;;;0.55;;
74512;SDS011;62992;52.052;8.550;2022-10-16T11:30:29;1.27;;;0.50;;
74512;SDS011;62992;52.052;8.550;2022-10-16T11:35:42;3.25;;;0.60;;
74512;SDS011;62992;52.052;8.550;2022-10-16T11:38:17;2.10;;;0.90;;
74512;SDS011;62992;52.052;8.550;2022-10-16T11:41:03;1.25;;;0.82;;
74512;SDS011;62992;52.052;8.550;2022-10-16T11:43:48;2.05;;;0.80;;
74512;SDS011;62992;52.052;8.550;2022-10-16T11:46:30;1.88;;;0.70;;
74512;SDS011;62992;52.052;8.550;2022-10-16T11:49:09;2.50;;;0.70;;
74512;SDS011;62992;52.052;8.550;2022-10-16T11:51:47;3.80;;;1.15;;
74512;SDS011;62992;52.052;8.550;2022-10-16T11:57:15;2.80;;;0.70;;
74512;SDS011;62992;52.052;8.550;2022-10-16T11:59:51;3.60;;;1.08;;
74512;SDS011;62992;52.052;8.550;2022-10-16T12:08:17;2.10;;;0.73;;
74512;SDS011;62992;52.052;8.550;2022-10-16T12:10:44;1.80;;;0.70;;
74512;SDS011;62992;52.052;8.550;2022-10-16T12:16:36;1.23;;;0.63;;
74512;SDS011;62992;52.052;8.550;2022-10-16T12:19:13;1.63;;;0.60;;
74512;SDS011;62992;52.052;8.550;2022-10-16T12:21:40;1.42;;;0.50;;
74512;SDS011;62992;52.052;8.550;2022-10-16T12:24:18;2.08;;;0.60;;
74512;SDS011;62992;52.052;8.550;2022-10-16T12:26:48;1.65;;;0.70;;
74512;SDS011;62992;52.052;8.550;2022-10-16T12:31:48;1.85;;;0.90;;
74512;SDS011;62992;52.052;8.550;2022-10-16T12:34:22;3.13;;;0.80;;
74512;SDS011;62992;52.052;8.550;2022-10-16T12:36:52;2.85;;;0.80;;
74512;SDS011;62992;52.052;8.550;2022-10-16T12:39:23;1.30;;;0.80;;
74512;SDS011;62992;52.052;8.550;2022-10-16T12:42:17;1.23;;;0.60;;
74512;SDS011;62992;52.052;8.550;2022-10-16T12:44:46;2.20;;;0.90;;
74512;SDS011;62992;52.052;8.550;2022-10-16T12:47:47;5.63;;;1.70;;
74512;SDS011;62992;52.052;8.550;2022-10-16T12:50:26;1.45;;;0.90;;
74512;SDS011;62992;52.052;8.550;2022-10-16T12:52:57;2.85;;;0.90;;
74512;SDS011;62992;52.052;8.550;2022-10-16T12:55:24;3.05;;;0.90;;
74512;SDS011;62992;52.052;8.550;2022-10-16T12:58:08;3.08;;;1.52;;
74512;SDS011;62992;52.052;8.550;2022-10-16T13:01:04;4.57;;;1.10;;
74512;SDS011;62992;52.052;8.550;2022-10-16T13:03:59;1.63;;;1.10;;
74512;SDS011;62992;52.052;8.550;2022-10-16T13:12:22;1.83;;;1.05;;
74512;SDS011;62992;52.052;8.550;2022-10-16T13:17:42;2.70;;;1.10;;
74512;SDS011;62992;52.052;8.550;2022-10-16T13:25:42;1.95;;;1.20;;
74512;SDS011;62992;52.052;8.550;2022-10-16T13:28:11;4.20;;;1.10;;
74512;SDS011;62992;52.052;8.550;2022-10-16T13:33:07;2.08;;;1.05;;
74512;SDS011;62992;52.052;8.550;2022-10-16T13:35:49;2.22;;;1.00;;
74512;SDS011;62992;52.052;8.550;2022-10-16T13:38:18;1.65;;;1.00;;
74512;SDS011;62992;52.052;8.550;2022-10-16T13:43:25;1.73;;;1.10;;
74512;SDS011;62992;52.052;8.550;2022-10-16T13:46:26;2.47;;;1.20;;
74512;SDS011;62992;52.052;8.550;2022-10-16T13:48:59;2.92;;;1.10;;
74512;SDS011;62992;52.052;8.550;2022-10-16T13:51:26;3.33;;;1.33;;
74512;SDS011;62992;52.052;8.550;2022-10-16T13:53:52;4.10;;;1.10;;
74512;SDS011;62992;52.052;8.550;2022-10-16T13:56:21;3.85;;;1.73;;
74512;SDS011;62992;52.052;8.550;2022-10-16T13:59:01;2.75;;;1.13;;
74512;SDS011;62992;52.052;8.550;2022-10-16T14:01:34;2.15;;;1.00;;
74512;SDS011;62992;52.052;8.550;2022-10-16T14:04:10;1.45;;;1.25;;
74512;SDS011;62992;52.052;8.550;2022-10-16T14:06:42;2.50;;;1.20;;
74512;SDS011;62992;52.052;8.550;2022-10-16T14:11:50;3.10;;;0.90;;
74512;SDS011;62992;52.052;8.550;2022-10-16T14:14:18;2.45;;;1.10;;
74512;SDS011;62992;52.052;8.550;2022-10-16T14:16:45;1.95;;;1.20;;
74512;SDS011;62992;52.052;8.550;2022-10-16T14:19:29;2.47;;;1.20;;
74512;SDS011;62992;52.052;8.550;2022-10-16T14:21:56;1.40;;;1.25;;
74512;SDS011;62992;52.052;8.550;2022-10-16T14:24:30;3.70;;;1.30;;
74512;SDS011;62992;52.052;8.550;2022-10-16T14:26:58;2.35;;;1.08;;
74512;SDS011;62992;52.052;8.550;2022-10-16T14:29:25;2.33;;;1.20;;
74512;SDS011;62992;52.052;8.550;2022-10-16T14:34:31;1.77;;;1.05;;
74512;SDS011;62992;52.052;8.550;2022-10-16T14:37:23;1.98;;;1.00;;
74512;SDS011;62992;52.052;8.550;2022-10-16T14:39:51;1.30;;;0.88;;
74512;SDS011;62992;52.052;8.550;2022-10-16T14:42:18;2.47;;;1.00;;
74512;SDS011;62992;52.052;8.550;2022-10-16T14:44:48;2.20;;;1.10;;
74512;SDS011;62992;52.052;8.550;2022-10-16T14:47:18;4.43;;;1.25;;
74512;SDS011;62992;52.052;8.550;2022-10-16T14:49:49;2.65;;;1.00;;
74512;SDS011;62992;52.052;8.550;2022-10-16T14:52:15;2.60;;;0.95;;
74512;SDS011;62992;52.052;8.550;2022-10-16T14:54:40;2.47;;;1.00;;
74512;SDS011;62992;52.052;8.550;2022-10-16T14:57:13;1.55;;;1.05;;
74512;SDS011;62992;52.052;8.550;2022-10-16T14:59:42;4.03;;;1.20;;
74512;SDS011;62992;52.052;8.550;2022-10-16T15:04:44;4.88;;;1.30;;
74512;SDS011;62992;52.052;8.550;2022-10-16T15:07:10;2.53;;;1.13;;
74512;SDS011;62992;52.052;8.550;2022-10-16T15:09:35;1.65;;;1.02;;
74512;SDS011;62992;52.052;8.550;2022-10-16T15:12:01;2.53;;;1.17;;
74512;SDS011;62992;52.052;8.550;2022-10-16T15:14:26;1.60;;;1.10;;
74512;SDS011;62992;52.052;8.550;2022-10-16T15:16:52;3.00;;;1.20;;
74512;SDS011;62992;52.052;8.550;2022-10-16T15:19:18;2.70;;;1.17;;
74512;SDS011;62992;52.052;8.550;2022-10-16T15:21:43;3.47;;;1.20;;
74512;SDS011;62992;52.052;8.550;2022-10-16T15:24:11;4.60;;;1.30;;
74512;SDS011;62992;52.052;8.550;2022-10-16T15:26:38;3.20;;;1.17;;
74512;SDS011;62992;52.052;8.550;2022-10-16T15:29:04;2.67;;;1.40;;
74512;SDS011;62992;52.052;8.550;2022-10-16T15:31:30;1.17;;;1.00;;
74512;SDS011;62992;52.052;8.550;2022-10-16T15:33:56;2.78;;;1.10;;
74512;SDS011;62992;52.052;8.550;2022-10-16T15:36:36;4.60;;;1.35;;
74512;SDS011;62992;52.052;8.550;2022-10-16T15:39:03;2.05;;;1.13;;
74512;SDS011;62992;52.052;8.550;2022-10-16T15:41:30;2.33;;;1.38;;
74512;SDS011;62992;52.052;8.550;2022-10-16T15:43:56;2.30;;;1.48;;
74512;SDS011;62992;52.052;8.550;2022-10-16T15:46:22;1.65;;;1.15;;
74512;SDS011;62992;52.052;8.550;2022-10-16T15:48:49;1.30;;;1.20;;
74512;SDS011;62992;52.052;8.550;2022-10-16T15:51:16;2.60;;;1.33;;
74512;SDS011;62992;52.052;8.550;2022-10-16T15:53:42;2.40;;;1.40;;
74512;SDS011;62992;52.052;8.550;2022-10-16T15:56:11;2.72;;;1.10;;
74512;SDS011;62992;52.052;8.550;2022-10-16T15:58:38;2.72;;;1.30;;
74512;SDS011;62992;52.052;8.550;2022-10-16T16:01:04;5.20;;;1.20;;
74512;SDS011;62992;52.052;8.550;2022-10-16T16:03:30;2.17;;;1.92;;
74512;SDS011;62992;52.052;8.550;2022-10-16T16:05:56;3.05;;;1.42;;
74512;SDS011;62992;52.052;8.550;2022-10-16T16:08:22;2.72;;;1.20;;
74512;SDS011;62992;52.052;8.550;2022-10-16T16:13:43;1.98;;;1.35;;
74512;SDS011;62992;52.052;8.550;2022-10-16T16:16:14;3.13;;;1.63;;
74512;SDS011;62992;52.052;8.550;2022-10-16T16:18:41;1.90;;;1.52;;
74512;SDS011;62992;52.052;8.550;2022-10-16T16:21:07;3.08;;;1.40;;
74512;SDS011;62992;52.052;8.550;2022-10-16T16:23:35;3.58;;;2.05;;
74512;SDS011;62992;52.052;8.550;2022-10-16T16:26:11;2.10;;;1.80;;
74512;SDS011;62992;52.052;8.550;2022-10-16T16:28:39;2.70;;;1.60;;
74512;SDS011;62992;52.052;8.550;2022-10-16T16:31:06;5.15;;;2.33;;
74512;SDS011;62992;52.052;8.550;2022-10-16T16:33:32;3.38;;;2.40;;
74512;SDS011;62992;52.052;8.550;2022-10-16T16:35:59;4.07;;;3.13;;
74512;SDS011;62992;52.052;8.550;2022-10-16T16:38:26;4.70;;;2.80;;
74512;SDS011;62992;52.052;8.550;2022-10-16T16:40:52;5.40;;;3.40;;
74512;SDS011;62992;52.052;8.550;2022-10-16T16:43:18;4.55;;;2.90;;
74512;SDS011;62992;52.052;8.550;2022-10-16T16:45:47;3.50;;;2.63;;
74512;SDS011;62992;52.052;8.550;2022-10-16T16:48:12;4.03;;;2.55;;
74512;SDS011;62992;52.052;8.550;2022-10-16T16:50:38;3.30;;;2.47;;
74512;SDS011;62992;52.052;8.550;2022-10-16T16:53:03;7.30;;;2.40;;
74512;SDS011;62992;52.052;8.550;2022-10-16T16:55:29;4.43;;;2.63;;
74512;SDS011;62992;52.052;8.550;2022-10-16T16:57:55;3.63;;;2.58;;
74512;SDS011;62992;52.052;8.550;2022-10-16T17:00:21;4.68;;;2.58;;
74512;SDS011;62992;52.052;8.550;2022-10-16T17:02:48;2.67;;;2.05;;
74512;SDS011;62992;52.052;8.550;2022-10-16T17:05:14;4.38;;;2.80;;
74512;SDS011;62992;52.052;8.550;2022-10-16T17:07:40;3.63;;;2.50;;
74512;SDS011;62992;52.052;8.550;2022-10-16T17:10:06;3.70;;;2.92;;
74512;SDS011;62992;52.052;8.550;2022-10-16T17:12:32;4.57;;;3.05;;
74512;SDS011;62992;52.052;8.550;2022-10-16T17:14:58;4.10;;;3.70;;